Time;durP1;ratioP1;P1;durP2;ratioP2;P2;SDS_P1;SDS_P2;PMS_P1;PMS_P2;Temp;Humidity;BMP_temperature;BMP_pressure;BME280_temperature;BME280_humidity;BME280_pressure;Samples;Min_cycle;Max_cycle;Signal;HPM_P1;HPM_P2
2023/09/20 00:02:27;;;;;;;3.97;1.27;;;12.20;99.90;;;;;;1915782;73;26376;-90
2023/09/20 00:06:09;;;;;;;4.57;1.00;;;12.10;99.90;;;;;;1865888;76;25300;-90
2023/09/20 00:38:57;;;;;;;3.03;0.90;;;12.10;99.90;;;;;;1948711;72;27626;-90
2023/09/20 01:45:14;;;;;;;2.60;1.03;;;12.40;99.90;;;;;;1917964;73;33307;-90
2023/09/20 02:17:31;;;;;;;2.43;0.83;;;12.50;99.90;;;;;;1936628;72;27036;-91
2023/09/20 02:37:28;;;;;;;4.43;0.80;;;12.50;99.90;;;;;;1959769;71;26333;-90
2023/09/20 02:54:11;;;;;;;1.97;0.70;;;12.50;99.90;;;;;;1946398;72;27005;-90
2023/09/20 02:57:01;;;;;;;5.13;0.90;;;12.50;99.90;;;;;;1940971;73;25268;-90
2023/09/20 02:59:51;;;;;;;2.37;0.80;;;12.50;99.90;;;;;;1917241;73;25850;-91
2023/09/20 03:02:45;;;;;;;4.13;0.80;;;12.50;99.90;;;;;;1916391;73;25278;-90
2023/09/20 03:05:37;;;;;;;3.00;0.80;;;12.60;99.90;;;;;;1916379;73;25276;-91
2023/09/20 03:36:15;;;;;;;1.70;0.90;;;12.70;99.90;;;;;;1993594;71;26393;-90
2023/09/20 04:01:15;;;;;;;2.83;0.87;;;12.80;99.90;;;;;;1940949;72;27658;-89
2023/09/20 04:04:08;;;;;;;4.43;0.70;;;12.80;99.90;;;;;;1916251;73;25308;-89
2023/09/20 04:07:26;;;;;;;7.77;1.10;;;12.80;99.90;;;;;;1917170;73;25238;-90
2023/09/20 04:10:18;;;;;;;4.33;1.20;;;12.80;99.90;;;;;;1920928;73;25246;-91
2023/09/20 04:13:08;;;;;;;5.30;1.00;;;12.80;99.90;;;;;;1930431;73;25703;-91
2023/09/20 04:20:26;;;;;;;5.80;0.93;;;12.80;99.90;;;;;;1982200;71;27499;-90
2023/09/20 04:23:17;;;;;;;4.43;0.90;;;12.80;99.90;;;;;;1965975;72;25230;-90
2023/09/20 04:26:07;;;;;;;1.60;0.80;;;12.90;99.90;;;;;;2045265;69;25239;-90
2023/09/20 04:29:03;;;;;;;4.73;0.80;;;12.90;99.90;;;;;;1997425;71;25736;-89
2023/09/20 04:31:52;;;;;;;1.70;0.80;;;12.90;99.90;;;;;;2036553;69;25144;-89
2023/09/20 04:34:52;;;;;;;4.37;0.90;;;12.90;99.90;;;;;;2040305;69;25241;-90
2023/09/20 04:37:39;;;;;;;4.50;1.10;;;12.90;99.90;;;;;;2043768;69;25221;-90
2023/09/20 04:40:29;;;;;;;2.13;0.90;;;12.90;99.90;;;;;;2038226;69;25220;-90
2023/09/20 05:26:38;;;;;;;2.00;1.00;;;12.80;99.90;;;;;;1857263;76;32073;-93
2023/09/20 05:30:20;;;;;;;2.73;0.90;;;12.40;99.90;;;;;;1885711;74;25238;-93
2023/09/20 05:46:55;;;;;;;2.43;1.03;;;12.30;99.90;;;;;;1887940;74;27035;-91
2023/09/20 06:03:26;;;;;;;1.20;0.80;;;12.40;99.90;;;;;;1931701;72;26342;-91
2023/09/20 06:22:00;;;;;;;3.07;0.80;;;12.60;99.90;;;;;;2001287;71;27014;-91
2023/09/20 06:24:52;;;;;;;2.87;1.00;;;12.80;99.90;;;;;;2029346;69;25254;-92
2023/09/20 06:27:41;;;;;;;4.23;1.00;;;12.80;99.90;;;;;;2021808;70;25688;-91
2023/09/20 06:30:30;;;;;;;2.67;1.00;;;12.80;99.90;;;;;;2039151;69;25273;-91
2023/09/20 06:33:20;;;;;;;2.37;1.00;;;12.80;99.90;;;;;;2024598;69;25596;-91
2023/09/20 06:36:10;;;;;;;4.17;0.93;;;12.80;99.90;;;;;;2019476;70;25274;-91
2023/09/20 06:39:18;;;;;;;2.10;1.17;;;12.80;99.90;;;;;;2003683;70;25230;-91
2023/09/20 06:42:07;;;;;;;1.43;0.67;;;12.80;99.90;;;;;;2020401;70;25643;-91
2023/09/20 06:44:57;;;;;;;4.13;0.97;;;12.80;99.90;;;;;;2024696;69;25175;-91
2023/09/20 06:47:46;;;;;;;2.57;0.60;;;12.70;99.90;;;;;;2029067;69;25148;-91
2023/09/20 06:50:37;;;;;;;1.30;0.67;;;12.80;99.90;;;;;;2022730;69;25185;-91
2023/09/20 06:53:27;;;;;;;2.27;0.90;;;12.80;99.90;;;;;;2017496;70;25192;-91
2023/09/20 06:56:17;;;;;;;2.13;0.80;;;12.80;99.90;;;;;;2025858;70;25225;-91
2023/09/20 07:14:35;;;;;;;2.70;0.80;;;12.80;99.90;;;;;;1903383;73;26378;-90
2023/09/20 07:31:09;;;;;;;2.00;0.93;;;13.00;99.90;;;;;;1915135;74;27151;-89
2023/09/20 07:47:56;;;;;;;3.17;0.90;;;13.20;99.90;;;;;;1918635;73;27156;-90
2023/09/20 07:53:28;;;;;;;2.47;0.70;;;13.60;99.90;;;;;;2016392;69;26934;-89
2023/09/20 07:59:13;;;;;;;3.53;0.90;;;13.70;99.90;;;;;;1981366;71;26952;-89
2023/09/20 08:02:03;;;;;;;2.27;0.83;;;13.80;99.90;;;;;;1941005;73;25667;-89
2023/09/20 08:07:40;;;;;;;1.50;0.70;;;14.10;99.90;;;;;;1948483;72;27062;-89
2023/09/20 08:10:29;;;;;;;1.83;0.80;;;14.20;99.90;;;;;;1859406;76;25836;-89
2023/09/20 08:13:17;;;;;;;2.70;0.80;;;14.30;99.90;;;;;;1842095;76;25268;-90
2023/09/20 08:16:10;;;;;;;4.47;0.97;;;14.30;99.90;;;;;;1850409;76;26624;-90
2023/09/20 08:19:09;;;;;;;2.97;0.97;;;14.20;99.90;;;;;;1829598;76;25266;-90
2023/09/20 08:21:56;;;;;;;3.00;1.00;;;14.30;99.90;;;;;;1852512;76;25272;-89
2023/09/20 09:00:53;;;;;;;1.47;0.67;;;14.80;99.90;;;;;;1940096;73;25334;-90
2023/09/20 09:03:43;;;;;;;1.93;1.00;;;14.90;99.90;;;;;;1941948;73;26653;-89
2023/09/20 09:06:32;;;;;;;1.07;0.60;;;14.90;99.90;;;;;;1920839;73;25713;-89
2023/09/20 09:09:20;;;;;;;0.87;0.70;;;14.80;99.90;;;;;;1946225;73;25218;-90
2023/09/20 09:28:32;;;;;;;1.40;0.77;;;14.50;99.90;;;;;;1964896;72;27149;-90
2023/09/20 09:31:21;;;;;;;3.37;0.70;;;14.50;99.90;;;;;;1927245;73;25283;-89
2023/09/20 09:34:12;;;;;;;1.27;0.70;;;14.50;99.90;;;;;;1926772;73;25245;-90
2023/09/20 10:15:39;;;;;;;0.73;0.73;;;14.40;99.90;;;;;;1918681;71;26545;-89
2023/09/20 10:21:15;;;;;;;1.70;0.70;;;14.40;99.90;;;;;;1939126;72;27670;-90
2023/09/20 10:24:07;;;;;;;0.70;0.60;;;14.50;99.90;;;;;;1936420;73;25253;-90
2023/09/20 10:27:03;;;;;;;1.10;0.67;;;14.50;99.90;;;;;;1892455;74;25232;-90
2023/09/20 10:30:01;;;;;;;1.60;1.00;;;14.50;99.90;;;;;;1834446;77;25404;-90
2023/09/20 10:32:59;;;;;;;0.60;0.60;;;14.50;99.90;;;;;;1939690;73;25784;-90
2023/09/20 10:35:46;;;;;;;1.17;0.70;;;14.40;99.90;;;;;;1898170;75;25230;-90
2023/09/20 10:38:35;;;;;;;0.67;0.50;;;14.50;99.90;;;;;;1869968;75;25728;-90
2023/09/20 10:44:26;;;;;;;1.33;0.77;;;14.50;99.90;;;;;;1957569;72;27045;-90
2023/09/20 11:01:03;;;;;;;0.50;0.50;;;14.50;99.90;;;;;;1989523;71;26309;-91
2023/09/20 11:06:48;;;;;;;0.50;0.50;;;14.70;99.90;;;;;;1950372;72;26683;-90
2023/09/20 11:09:39;;;;;;;1.23;0.60;;;14.70;99.90;;;;;;1943262;73;25142;-91
2023/09/20 11:12:36;;;;;;;0.40;0.40;;;14.70;99.90;;;;;;1888491;75;25749;-90
2023/09/20 11:15:29;;;;;;;0.67;0.40;;;14.60;99.90;;;;;;1896936;75;25233;-90
2023/09/20 11:18:41;;;;;;;2.53;0.60;;;14.60;99.90;;;;;;1897159;75;25193;-90
2023/09/20 11:21:49;;;;;;;0.67;0.67;;;14.60;99.90;;;;;;1868168;76;25317;-90
2023/09/20 11:24:44;;;;;;;2.13;0.87;;;14.60;99.90;;;;;;1891697;74;25903;-91
2023/09/20 11:27:41;;;;;;;0.60;0.60;;;14.70;99.90;;;;;;1881220;75;25321;-91
2023/09/20 11:30:38;;;;;;;1.10;0.60;;;14.80;99.90;;;;;;1883787;75;25167;-91
2023/09/20 11:33:32;;;;;;;1.33;0.67;;;14.90;99.90;;;;;;1866123;75;25171;-91
2023/09/20 12:13:19;;;;;;;1.77;1.40;;;15.60;99.90;;;;;;1963958;72;27030;-89
2023/09/20 12:49:47;;;;;;;7.57;2.10;;;16.70;99.90;;;;;;1943159;72;27455;-90
2023/09/20 12:52:59;;;;;;;7.40;1.93;;;16.70;99.90;;;;;;1910600;73;25206;-90
2023/09/20 12:55:58;;;;;;;7.27;1.90;;;16.80;99.90;;;;;;1935049;73;25254;-90
2023/09/20 12:59:09;;;;;;;8.33;2.30;;;17.00;99.90;;;;;;1935259;73;25182;-90
2023/09/20 13:02:05;;;;;;;12.53;2.33;;;17.20;99.90;;;;;;1917177;73;25752;-90
2023/09/20 13:05:01;;;;;;;7.80;2.37;;;17.40;99.90;;;;;;1926952;73;25312;-90
2023/09/20 13:11:10;;;;;;;11.87;2.93;;;17.50;99.90;;;;;;1928307;73;25493;-90
2023/09/20 13:40:53;;;;;;;12.90;2.50;;;17.70;99.90;;;;;;1880537;75;27672;-89
2023/09/20 13:59:06;;;;;;;15.27;2.70;;;18.20;99.90;;;;;;1902774;74;27507;-90
2023/09/20 14:05:14;;;;;;;13.53;2.40;;;18.10;99.90;;;;;;1985947;71;26851;-90
2023/09/20 14:08:04;;;;;;;17.87;3.10;;;17.80;99.90;;;;;;2023877;70;25211;-90
2023/09/20 14:10:53;;;;;;;15.73;3.00;;;17.60;99.90;;;;;;2009621;70;25282;-89
2023/09/20 14:16:38;;;;;;;15.17;2.90;;;17.40;99.90;;;;;;1949781;72;26925;-91
2023/09/20 14:19:27;;;;;;;19.27;3.10;;;17.40;99.90;;;;;;1891236;75;25237;-89
2023/09/20 14:22:17;;;;;;;13.50;2.80;;;17.50;99.90;;;;;;1872460;75;25181;-90
2023/09/20 14:25:09;;;;;;;12.53;2.80;;;17.40;99.90;;;;;;1875413;76;25169;-90
2023/09/20 14:31:02;;;;;;;8.37;1.97;;;17.60;99.90;;;;;;1958674;72;27552;-89
2023/09/20 14:33:52;;;;;;;11.10;2.10;;;17.60;99.90;;;;;;1925597;73;25181;-90
2023/09/20 14:36:41;;;;;;;6.57;1.80;;;17.70;99.90;;;;;;1926023;73;25235;-90
2023/09/20 14:53:30;;;;;;;7.80;1.80;;;17.80;99.90;;;;;;1900648;74;26358;-91
2023/09/20 14:58:59;;;;;;;8.50;2.00;;;17.90;99.90;;;;;;1929390;72;27595;-90
2023/09/20 15:01:49;;;;;;;6.20;1.63;;;17.70;99.90;;;;;;1906209;74;25619;-89
2023/09/20 15:04:38;;;;;;;5.50;1.40;;;17.60;99.90;;;;;;1904720;75;25305;-89
2023/09/20 15:07:27;;;;;;;3.17;1.30;;;17.60;99.90;;;;;;1834872;77;25296;-90
2023/09/20 15:10:17;;;;;;;5.20;1.50;;;17.50;99.90;;;;;;1847530;77;25617;-89
2023/09/20 15:13:07;;;;;;;6.27;1.30;;;17.50;99.90;;;;;;1913303;75;25164;-90
2023/09/20 15:15:57;;;;;;;7.43;1.63;;;17.50;99.90;;;;;;1888710;75;25719;-89
2023/09/20 15:18:48;;;;;;;5.20;1.30;;;17.70;99.90;;;;;;1907566;75;25170;-89
2023/09/20 15:21:36;;;;;;;2.47;1.20;;;17.70;99.90;;;;;;1899109;75;25283;-90
2023/09/20 15:24:27;;;;;;;4.53;1.80;;;17.40;99.90;;;;;;1890844;74;25229;-90
2023/09/20 15:30:09;;;;;;;7.07;1.50;;;17.10;99.90;;;;;;1959312;72;26890;-90
2023/09/20 15:32:58;;;;;;;5.93;1.60;;;17.00;99.90;;;;;;1945959;73;25704;-90
2023/09/20 15:35:52;;;;;;;4.90;1.20;;;17.00;99.90;;;;;;1916862;73;25277;-89
2023/09/20 15:38:41;;;;;;;2.87;1.37;;;17.10;99.90;;;;;;1925995;73;25171;-90
2023/09/20 15:41:30;;;;;;;5.23;1.33;;;17.00;99.90;;;;;;1926284;73;25348;-89
2023/09/20 15:44:20;;;;;;;5.53;1.60;;;17.00;99.90;;;;;;1917696;73;25233;-89
2023/09/20 15:47:15;;;;;;;9.00;2.00;;;17.10;99.90;;;;;;1913322;73;25254;-90
2023/09/20 15:50:02;;;;;;;10.37;2.07;;;17.10;99.90;;;;;;1915047;73;25180;-89
2023/09/20 15:52:51;;;;;;;5.10;2.10;;;17.10;99.90;;;;;;1916392;73;25245;-89
2023/09/20 15:55:41;;;;;;;15.00;2.30;;;17.00;99.90;;;;;;1914523;73;25241;-90
2023/09/20 15:58:31;;;;;;;10.53;2.30;;;16.90;99.90;;;;;;1914905;73;25195;-89
2023/09/20 16:01:26;;;;;;;10.37;2.60;;;16.90;99.90;;;;;;1927763;73;25171;-90
2023/09/20 16:04:11;;;;;;;14.23;2.50;;;16.90;99.90;;;;;;1922546;73;25222;-90
2023/09/20 16:09:52;;;;;;;10.90;2.73;;;16.80;99.90;;;;;;1955405;72;26873;-91
2023/09/20 16:12:43;;;;;;;8.97;2.43;;;16.80;99.90;;;;;;1925579;73;25228;-91
2023/09/20 16:15:36;;;;;;;13.03;2.50;;;16.80;99.90;;;;;;1935869;73;25254;-91
2023/09/20 16:18:28;;;;;;;11.67;2.53;;;16.80;99.90;;;;;;1923305;72;25162;-91
2023/09/20 16:21:19;;;;;;;9.30;2.07;;;16.80;99.90;;;;;;1919487;73;25185;-91
2023/09/20 16:24:10;;;;;;;13.63;2.73;;;16.80;99.90;;;;;;1938780;73;25824;-91
2023/09/20 16:26:59;;;;;;;11.23;2.40;;;16.80;99.90;;;;;;1935944;73;25319;-91
2023/09/20 16:29:49;;;;;;;10.53;2.53;;;16.90;99.90;;;;;;1917378;73;25310;-91
2023/09/20 16:32:43;;;;;;;7.30;2.30;;;16.80;99.90;;;;;;1930951;73;25835;-91
2023/09/20 16:35:32;;;;;;;8.20;2.33;;;16.70;99.90;;;;;;1916588;73;25292;-89
2023/09/20 16:38:26;;;;;;;10.27;2.50;;;16.70;99.90;;;;;;1925575;73;25206;-90
2023/09/20 16:41:39;;;;;;;8.93;2.60;;;16.70;99.90;;;;;;1895155;75;25289;-89
2023/09/20 16:44:27;;;;;;;10.33;2.40;;;16.70;99.90;;;;;;1856738;76;25290;-91
2023/09/20 16:47:22;;;;;;;11.50;2.20;;;16.70;99.90;;;;;;1883647;75;25319;-91
2023/09/20 16:50:12;;;;;;;5.10;2.13;;;16.80;99.90;;;;;;1877443;75;25571;-91
2023/09/20 16:53:06;;;;;;;12.10;2.30;;;16.80;99.90;;;;;;1892813;75;25265;-91
2023/09/20 16:55:55;;;;;;;6.27;2.27;;;16.70;99.90;;;;;;1881774;75;25748;-91
2023/09/20 16:59:42;;;;;;;11.07;2.37;;;16.80;99.90;;;;;;1877327;75;25312;-91
2023/09/20 17:02:36;;;;;;;10.83;2.50;;;16.70;99.90;;;;;;1886757;75;25321;-91
2023/09/20 17:05:28;;;;;;;17.90;2.87;;;16.80;99.90;;;;;;1872514;76;25663;-91
2023/09/20 17:08:18;;;;;;;11.80;2.40;;;16.80;99.90;;;;;;1861984;76;25253;-91
2023/09/20 17:11:10;;;;;;;17.57;3.13;;;16.70;99.90;;;;;;1900485;75;25195;-90
2023/09/20 17:28:58;;;;;;;14.33;3.20;;;16.60;99.90;;;;;;1969701;72;28187;-90
2023/09/20 17:46:14;;;;;;;21.33;3.10;;;16.40;99.90;;;;;;1854607;76;28869;-91
2023/09/20 18:12:26;;;;;;;21.20;3.80;;;16.10;99.90;;;;;;1894745;74;26476;-92
2023/09/20 18:53:59;;;;;;;4.27;1.53;;;16.30;99.90;;;;;;1952449;72;27084;-91
2023/09/20 18:59:46;;;;;;;4.47;1.77;;;16.30;99.90;;;;;;1943466;72;26958;-91
2023/09/20 19:02:37;;;;;;;15.53;1.77;;;16.30;99.90;;;;;;1917574;73;25230;-91
2023/09/20 19:05:44;;;;;;;2.93;1.50;;;16.30;99.90;;;;;;1923589;73;25222;-91
2023/09/20 19:08:49;;;;;;;4.77;1.43;;;16.30;99.90;;;;;;1939614;73;25267;-91
2023/09/20 19:11:40;;;;;;;6.07;2.13;;;16.20;99.90;;;;;;1893420;75;25208;-91
2023/09/20 19:44:16;;;;;;;6.50;1.80;;;16.20;99.90;;;;;;1919419;73;27098;-91
2023/09/20 19:47:17;;;;;;;8.33;2.20;;;16.20;99.90;;;;;;1902717;73;25731;-91
2023/09/20 20:05:57;;;;;;;15.87;2.20;;;16.20;99.90;;;;;;1895616;74;26420;-91
2023/09/20 22:22:48;;;;;;;9.60;4.50;;;16.00;99.90;;;;;;2024702;69;27647;-92
2023/09/20 22:39:08;;;;;;;11.57;5.60;;;16.00;99.90;;;;;;1842525;76;27221;-90
2023/09/20 22:55:30;;;;;;;10.20;4.90;;;16.10;99.90;;;;;;1865769;75;27610;-91
2023/09/20 23:15:10;;;;;;;10.43;5.23;;;16.20;99.90;;;;;;1854066;75;32863;-91
2023/09/20 23:21:25;;;;;;;12.83;5.33;;;16.30;99.90;;;;;;1944753;72;28253;-90
2023/09/20 23:24:17;;;;;;;12.27;5.20;;;16.30;99.90;;;;;;1917579;73;25180;-90
2023/09/20 23:30:57;;;;;;;13.40;6.40;;;16.20;99.90;;;;;;1917077;75;25206;-90
2023/09/20 23:34:14;;;;;;;16.53;7.10;;;16.20;99.90;;;;;;1923105;73;25244;-90
